Time;durP1;ratioP1;P1;durP2;ratioP2;P2;SDS_P1;SDS_P2;PMS_P1;PMS_P2;Temp;Humidity;BMP_temperature;BMP_pressure;BME280_temperature;BME280_humidity;BME280_pressure;Samples;Min_cycle;Max_cycle;Signal;HPM_P1;HPM_P2
2021/07/24 00:00:34;;;;;;;1999.90;999.90;;;20.70;99.90;;;;;;5054846;28;20177;-73
2021/07/24 00:02:59;;;;;;;1999.90;999.90;;;20.70;99.90;;;;;;5054551;28;20770;-73
2021/07/24 00:05:25;;;;;;;1999.90;999.90;;;20.70;99.90;;;;;;5054593;28;20640;-73
2021/07/24 00:07:50;;;;;;;1999.90;999.90;;;20.70;99.90;;;;;;5054984;28;20219;-73
2021/07/24 00:10:16;;;;;;;1999.90;999.90;;;20.70;99.90;;;;;;5054681;28;20195;-73
2021/07/24 00:12:42;;;;;;;1999.90;999.90;;;20.70;99.90;;;;;;5054441;28;20197;-73
2021/07/24 00:15:07;;;;;;;1999.90;999.90;;;20.70;99.90;;;;;;5054272;28;20169;-74
2021/07/24 00:17:33;;;;;;;1999.90;999.90;;;20.70;99.90;;;;;;5054108;28;20174;-72
2021/07/24 00:19:59;;;;;;;1999.90;999.90;;;20.60;99.90;;;;;;5053836;28;20410;-73
2021/07/24 00:22:24;;;;;;;1999.90;999.90;;;20.60;99.90;;;;;;5053702;28;20532;-73
2021/07/24 00:24:50;;;;;;;1999.90;999.90;;;20.60;99.90;;;;;;5053817;28;20204;-73
2021/07/24 00:27:15;;;;;;;1999.90;999.90;;;20.50;99.90;;;;;;5054425;28;20168;-73
2021/07/24 00:29:41;;;;;;;1999.90;999.90;;;20.30;99.90;;;;;;5054378;28;20163;-73
2021/07/24 00:32:07;;;;;;;1999.90;999.90;;;20.10;99.90;;;;;;5054477;28;20188;-73
2021/07/24 00:34:32;;;;;;;1999.90;999.90;;;19.80;99.90;;;;;;5054092;28;20618;-73
2021/07/24 00:36:59;;;;;;;1999.90;999.90;;;19.60;99.90;;;;;;5054407;28;20175;-73
2021/07/24 00:39:25;;;;;;;1999.90;999.90;;;19.40;99.90;;;;;;5054014;28;20171;-73
2021/07/24 00:41:59;;;;;;;1999.90;999.90;;;19.30;99.90;;;;;;5054427;28;20409;-73
2021/07/24 00:44:27;;;;;;;1999.90;999.90;;;19.30;99.90;;;;;;5054196;28;20442;-73
2021/07/24 00:46:55;;;;;;;1999.90;999.90;;;19.30;99.90;;;;;;5055593;28;20930;-73
2021/07/24 00:49:22;;;;;;;1999.90;999.90;;;19.30;99.90;;;;;;5055447;28;20413;-73
2021/07/24 00:51:49;;;;;;;1999.90;999.90;;;19.40;99.90;;;;;;5053841;28;20464;-74
2021/07/24 00:54:15;;;;;;;1999.90;999.90;;;19.50;99.90;;;;;;5053281;28;20415;-73
2021/07/24 00:56:40;;;;;;;1999.90;999.90;;;19.50;99.90;;;;;;5054473;28;20753;-73
2021/07/24 00:59:06;;;;;;;1999.90;999.90;;;19.40;99.90;;;;;;5054277;28;20398;-74
2021/07/24 01:01:32;;;;;;;1999.90;999.90;;;19.30;99.90;;;;;;5054116;28;20194;-73
2021/07/24 01:03:58;;;;;;;1999.90;999.90;;;19.10;99.90;;;;;;5053970;28;20937;-73
2021/07/24 01:06:24;;;;;;;1999.90;999.90;;;19.00;99.90;;;;;;5053377;28;20175;-73
2021/07/24 01:08:51;;;;;;;1999.90;999.90;;;18.90;99.90;;;;;;5053384;28;20688;-73
2021/07/24 01:11:17;;;;;;;1999.90;999.90;;;18.90;99.90;;;;;;5053011;28;20462;-73
2021/07/24 01:13:43;;;;;;;1999.90;999.90;;;18.90;99.90;;;;;;5052798;28;20400;-74
2021/07/24 01:16:10;;;;;;;1999.90;999.90;;;19.00;99.90;;;;;;5052738;28;20482;-73
2021/07/24 01:18:36;;;;;;;1999.90;999.90;;;19.00;99.90;;;;;;5053177;28;20409;-73
2021/07/24 01:21:07;;;;;;;1999.90;999.90;;;19.10;99.90;;;;;;5052640;28;20443;-74
2021/07/24 01:23:32;;;;;;;1999.90;999.90;;;19.00;99.90;;;;;;5052958;28;20442;-73
2021/07/24 01:25:58;;;;;;;1999.90;999.90;;;19.10;99.90;;;;;;5052363;28;20406;-73
2021/07/24 01:28:30;;;;;;;1999.90;999.90;;;19.20;99.90;;;;;;5052572;28;20252;-74
2021/07/24 01:30:57;;;;;;;1999.90;999.90;;;19.20;99.90;;;;;;5052727;28;20274;-74
2021/07/24 01:33:23;;;;;;;1999.90;999.90;;;19.20;99.90;;;;;;5052380;28;20438;-73
2021/07/24 01:35:50;;;;;;;1999.90;999.90;;;18.80;99.90;;;;;;5052150;28;20493;-74
2021/07/24 01:38:16;;;;;;;1999.90;999.90;;;18.80;99.90;;;;;;5052409;28;20534;-73
2021/07/24 01:40:42;;;;;;;1999.90;999.90;;;18.70;99.90;;;;;;5052287;28;20965;-74
2021/07/24 01:43:08;;;;;;;1999.90;999.90;;;18.80;99.90;;;;;;5052231;28;20609;-74
2021/07/24 01:45:36;;;;;;;1999.90;999.90;;;18.80;99.90;;;;;;5052194;28;20179;-73
2021/07/24 01:48:04;;;;;;;1999.90;999.90;;;18.80;99.90;;;;;;5052226;28;20215;-73
2021/07/24 01:53:15;;;;;;;1999.90;999.90;;;18.90;99.90;;;;;;5052078;28;20475;-74
2021/07/24 01:55:44;;;;;;;1999.90;999.90;;;19.00;99.90;;;;;;5051708;28;20377;-73
2021/07/24 01:58:13;;;;;;;1999.90;999.90;;;19.00;99.90;;;;;;5052098;28;20411;-74
2021/07/24 02:00:43;;;;;;;1999.90;999.90;;;19.00;99.90;;;;;;5052225;28;20408;-74
2021/07/24 02:03:13;;;;;;;1999.90;999.90;;;18.90;99.90;;;;;;5052005;28;21114;-73
2021/07/24 02:05:46;;;;;;;1999.90;999.90;;;18.80;99.90;;;;;;5051594;28;20412;-73
2021/07/24 02:08:18;;;;;;;1999.90;999.90;;;18.50;99.90;;;;;;5051782;28;20882;-73
2021/07/24 02:10:44;;;;;;;1999.90;999.90;;;18.40;99.90;;;;;;5051786;28;20828;-74
2021/07/24 02:13:10;;;;;;;1999.90;999.90;;;18.30;99.90;;;;;;5051933;28;20425;-73
2021/07/24 02:15:37;;;;;;;1999.90;999.90;;;18.30;99.90;;;;;;5051579;28;20207;-73
2021/07/24 02:18:03;;;;;;;1999.90;999.90;;;18.40;99.90;;;;;;5051922;28;20396;-73
2021/07/24 02:20:29;;;;;;;1999.90;999.90;;;18.40;99.90;;;;;;5051816;28;20468;-74
2021/07/24 02:22:56;;;;;;;1999.90;999.90;;;18.50;99.90;;;;;;5051698;28;20439;-73
2021/07/24 02:25:21;;;;;;;1999.90;999.90;;;18.50;99.90;;;;;;5051528;28;20413;-73
2021/07/24 02:27:48;;;;;;;1999.90;999.90;;;18.60;99.90;;;;;;5051878;28;20476;-73
2021/07/24 02:30:14;;;;;;;1999.90;999.90;;;18.60;99.90;;;;;;5051716;28;20189;-73
2021/07/24 02:32:41;;;;;;;1999.90;999.90;;;18.60;99.90;;;;;;5050908;28;20938;-74
2021/07/24 02:35:09;;;;;;;1999.90;999.90;;;18.60;99.90;;;;;;5050534;28;20784;-73
2021/07/24 02:37:35;;;;;;;1999.90;999.90;;;18.60;99.90;;;;;;5050704;28;20853;-73
2021/07/24 02:40:01;;;;;;;1999.90;999.90;;;18.60;99.90;;;;;;5050735;28;20489;-74
2021/07/24 02:42:26;;;;;;;1999.90;999.90;;;18.60;99.90;;;;;;5050549;28;20198;-73
2021/07/24 02:44:52;;;;;;;1999.90;999.90;;;18.70;99.90;;;;;;5050407;28;20503;-73
2021/07/24 02:47:17;;;;;;;1999.90;999.90;;;18.60;99.90;;;;;;5050626;28;20186;-74
2021/07/24 02:49:44;;;;;;;1999.90;999.90;;;18.60;99.90;;;;;;5050452;28;20180;-73
2021/07/24 02:52:10;;;;;;;1999.90;999.90;;;18.60;99.90;;;;;;5050507;28;20164;-73
2021/07/24 02:54:36;;;;;;;1999.90;999.90;;;18.60;99.90;;;;;;5050280;28;20928;-73
2021/07/24 02:57:02;;;;;;;1999.90;999.90;;;18.60;99.90;;;;;;5050462;28;20546;-73
2021/07/24 02:59:28;;;;;;;1999.90;999.90;;;18.50;99.90;;;;;;5050573;28;20424;-73
2021/07/24 03:01:53;;;;;;;1999.90;999.90;;;18.50;99.90;;;;;;5050396;28;20444;-73
2021/07/24 03:04:19;;;;;;;1999.90;999.90;;;18.50;99.90;;;;;;5049927;28;20204;-73
2021/07/24 03:06:45;;;;;;;1999.90;999.90;;;18.50;99.90;;;;;;5050406;28;20198;-73
2021/07/24 03:09:11;;;;;;;1999.90;999.90;;;18.50;99.90;;;;;;5050373;28;20202;-74
2021/07/24 03:11:37;;;;;;;1999.90;999.90;;;18.40;99.90;;;;;;5050211;28;20208;-74
2021/07/24 03:14:03;;;;;;;1999.90;999.90;;;18.40;99.90;;;;;;5049897;28;20490;-74
2021/07/24 03:16:29;;;;;;;1999.90;999.90;;;18.40;99.90;;;;;;5050325;28;20814;-74
2021/07/24 03:18:56;;;;;;;1999.90;999.90;;;18.40;99.90;;;;;;5052937;28;20172;-74
2021/07/24 03:21:22;;;;;;;1999.90;999.90;;;18.40;99.90;;;;;;5053481;28;20469;-73
2021/07/24 03:23:47;;;;;;;1999.90;999.90;;;18.30;99.90;;;;;;5053515;28;20913;-73
2021/07/24 03:26:13;;;;;;;1999.90;999.90;;;18.10;99.90;;;;;;5053362;28;20165;-73
2021/07/24 03:28:39;;;;;;;1999.90;999.90;;;18.00;99.90;;;;;;5053546;28;20195;-73
2021/07/24 03:31:05;;;;;;;1999.90;999.90;;;17.90;99.90;;;;;;5053406;28;20309;-74
2021/07/24 03:33:30;;;;;;;1999.90;999.90;;;17.90;99.90;;;;;;5015891;28;1100468;-73
2021/07/24 03:35:56;;;;;;;1999.90;999.90;;;18.00;99.90;;;;;;5054243;28;20171;-74
2021/07/24 03:38:22;;;;;;;1999.90;999.90;;;18.00;99.90;;;;;;5054611;28;20232;-74
2021/07/24 03:40:48;;;;;;;1999.90;999.90;;;18.10;99.90;;;;;;5054511;28;20529;-73
2021/07/24 03:43:14;;;;;;;1999.90;999.90;;;18.20;99.90;;;;;;5054309;28;20199;-73
2021/07/24 03:45:40;;;;;;;1999.90;999.90;;;18.30;99.90;;;;;;5054116;28;20270;-73
2021/07/24 03:48:05;;;;;;;1999.90;999.90;;;18.40;99.90;;;;;;5055189;28;20411;-73
2021/07/24 03:50:32;;;;;;;1999.90;999.90;;;18.40;99.90;;;;;;5055362;28;20205;-73
2021/07/24 03:52:58;;;;;;;1999.90;999.90;;;18.50;99.90;;;;;;5055271;28;20192;-73
2021/07/24 03:55:23;;;;;;;1999.90;999.90;;;18.50;99.90;;;;;;5055416;28;20408;-73
2021/07/24 03:57:51;;;;;;;1999.90;999.90;;;18.60;99.90;;;;;;5055098;28;20562;-73
2021/07/24 04:00:17;;;;;;;1999.90;999.90;;;18.50;99.90;;;;;;5055239;28;20205;-73
2021/07/24 04:02:43;;;;;;;1999.90;999.90;;;18.50;99.90;;;;;;5054874;28;20522;-73
2021/07/24 04:05:10;;;;;;;1999.90;999.90;;;18.60;99.90;;;;;;5055034;28;20188;-73
2021/07/24 04:07:37;;;;;;;1999.90;999.90;;;18.60;99.90;;;;;;5055295;28;20503;-73
2021/07/24 04:10:05;;;;;;;1999.90;999.90;;;18.40;99.90;;;;;;5054795;28;20449;-73
2021/07/24 04:12:31;;;;;;;1999.90;999.90;;;18.40;99.90;;;;;;5054975;28;20443;-73
2021/07/24 04:14:59;;;;;;;1999.90;999.90;;;18.40;99.90;;;;;;5054601;28;20409;-73
2021/07/24 04:17:25;;;;;;;1999.90;999.90;;;18.30;99.90;;;;;;5054551;28;20826;-72
2021/07/24 04:19:51;;;;;;;1999.90;999.90;;;18.30;99.90;;;;;;5054734;28;20500;-73
2021/07/24 04:22:17;;;;;;;1999.90;999.90;;;18.30;99.90;;;;;;5054819;28;20842;-73
2021/07/24 04:24:42;;;;;;;1999.90;999.90;;;18.20;99.90;;;;;;5054969;28;20179;-72
2021/07/24 04:27:08;;;;;;;1999.90;999.90;;;18.20;99.90;;;;;;5054831;28;20180;-73
2021/07/24 04:29:34;;;;;;;1999.90;999.90;;;18.30;99.90;;;;;;5055629;28;20574;-73
2021/07/24 04:32:01;;;;;;;1999.90;999.90;;;18.30;99.90;;;;;;5054687;28;20264;-73
2021/07/24 04:34:29;;;;;;;1999.90;999.90;;;18.30;99.90;;;;;;5054314;28;20218;-72
2021/07/24 04:36:55;;;;;;;1999.90;999.90;;;18.20;99.90;;;;;;5054564;28;20793;-72
2021/07/24 04:39:20;;;;;;;1999.90;999.90;;;18.20;99.90;;;;;;5054229;28;20407;-73
2021/07/24 04:41:46;;;;;;;1999.90;999.90;;;18.30;99.90;;;;;;5054457;28;20172;-73
2021/07/24 04:44:12;;;;;;;1999.90;999.90;;;18.30;99.90;;;;;;5053764;28;20398;-73
2021/07/24 04:46:37;;;;;;;1999.90;999.90;;;18.30;99.90;;;;;;5054057;28;20173;-73
2021/07/24 04:49:03;;;;;;;1999.90;999.90;;;18.40;99.90;;;;;;5054535;28;20706;-72
2021/07/24 04:51:29;;;;;;;1999.90;999.90;;;18.40;99.90;;;;;;5054134;28;20746;-73
2021/07/24 04:53:55;;;;;;;1999.90;999.90;;;18.40;99.90;;;;;;5053994;28;20576;-73
2021/07/24 04:56:21;;;;;;;1999.90;999.90;;;18.50;99.90;;;;;;5054636;28;20499;-73
2021/07/24 04:58:49;;;;;;;1999.90;999.90;;;18.60;99.90;;;;;;5054241;28;20803;-72
2021/07/24 05:01:15;;;;;;;1999.90;999.90;;;18.60;99.90;;;;;;5054229;28;20410;-73
2021/07/24 05:03:41;;;;;;;1999.90;999.90;;;18.60;99.90;;;;;;5053734;28;20427;-73
2021/07/24 05:06:07;;;;;;;1999.90;999.90;;;18.60;99.90;;;;;;5053985;28;20406;-73
2021/07/24 05:08:33;;;;;;;1999.90;999.90;;;18.60;99.90;;;;;;5053802;28;20544;-73
2021/07/24 05:10:59;;;;;;;1999.90;999.90;;;18.60;99.90;;;;;;5053567;28;20867;-73
2021/07/24 05:13:24;;;;;;;1999.90;999.90;;;18.70;99.90;;;;;;5053630;28;20432;-73
2021/07/24 05:15:52;;;;;;;1999.90;999.90;;;18.70;99.90;;;;;;5053191;28;20172;-73
2021/07/24 05:18:18;;;;;;;1999.90;999.90;;;18.80;99.90;;;;;;5053668;28;20167;-73
2021/07/24 05:20:43;;;;;;;1999.90;999.90;;;18.80;99.90;;;;;;5053511;28;20410;-73
2021/07/24 05:23:10;;;;;;;1999.90;999.90;;;18.90;99.90;;;;;;5053474;28;20647;-73
2021/07/24 05:25:36;;;;;;;1999.90;999.90;;;19.00;99.90;;;;;;5053611;28;20160;-72
2021/07/24 05:28:02;;;;;;;1999.90;999.90;;;19.10;99.90;;;;;;5053351;28;20885;-72
2021/07/24 05:30:28;;;;;;;1999.90;999.90;;;19.20;99.90;;;;;;5053423;28;20456;-73
2021/07/24 05:32:53;;;;;;;1999.90;999.90;;;19.20;99.90;;;;;;5053925;28;20449;-73
2021/07/24 05:35:19;;;;;;;1999.90;999.90;;;19.40;99.90;;;;;;5053277;28;20163;-73
2021/07/24 05:37:45;;;;;;;1999.90;999.90;;;19.40;99.90;;;;;;5053937;28;20190;-73
2021/07/24 05:40:13;;;;;;;1999.90;999.90;;;19.50;99.90;;;;;;5054508;28;20196;-72
2021/07/24 05:42:39;;;;;;;1999.90;999.90;;;19.50;99.90;;;;;;5053587;28;20191;-73
2021/07/24 05:45:05;;;;;;;1999.90;999.90;;;19.60;99.90;;;;;;5053994;28;20896;-73
2021/07/24 05:47:31;;;;;;;1999.90;999.90;;;19.60;99.90;;;;;;5053385;28;20174;-73
2021/07/24 05:49:57;;;;;;;1999.90;999.90;;;19.80;99.90;;;;;;5053424;28;20986;-73
2021/07/24 05:52:24;;;;;;;1999.90;999.90;;;19.90;99.90;;;;;;5052978;28;20483;-73
2021/07/24 05:54:50;;;;;;;1999.90;999.90;;;19.90;99.90;;;;;;5052749;28;20399;-73
2021/07/24 05:57:16;;;;;;;1999.90;999.90;;;19.90;99.90;;;;;;5052753;28;20407;-73
2021/07/24 05:59:42;;;;;;;1999.90;999.90;;;19.90;99.90;;;;;;5052990;28;20893;-73
2021/07/24 06:02:11;;;;;;;1999.90;999.90;;;19.80;99.90;;;;;;5052604;28;20429;-73
2021/07/24 06:04:39;;;;;;;1999.90;999.90;;;19.90;99.90;;;;;;5052660;28;20159;-73
2021/07/24 06:07:05;;;;;;;1999.90;999.90;;;20.00;99.90;;;;;;5052813;28;20482;-73
2021/07/24 06:09:30;;;;;;;1999.90;999.90;;;20.10;99.90;;;;;;5052611;28;20399;-73
2021/07/24 06:11:56;;;;;;;1999.90;999.90;;;20.30;99.90;;;;;;5052273;28;20562;-73
2021/07/24 06:14:25;;;;;;;1999.90;999.90;;;20.30;99.90;;;;;;5052280;28;20192;-73
2021/07/24 06:16:52;;;;;;;1999.90;999.90;;;20.40;99.90;;;;;;5052480;28;20189;-73
2021/07/24 06:19:17;;;;;;;1999.90;999.90;;;20.50;99.90;;;;;;5052963;28;20414;-73
2021/07/24 06:21:44;;;;;;;1999.90;999.90;;;20.50;99.90;;;;;;5052678;28;20770;-72
2021/07/24 06:24:10;;;;;;;1999.90;999.90;;;20.70;99.90;;;;;;5052142;28;20197;-73
2021/07/24 06:26:37;;;;;;;1999.90;999.90;;;20.70;99.90;;;;;;5053058;28;20406;-73
2021/07/24 06:29:03;;;;;;;1999.90;999.90;;;20.90;99.90;;;;;;5052654;28;20459;-73
2021/07/24 06:31:28;;;;;;;1999.90;999.90;;;21.00;99.90;;;;;;5052793;28;20442;-73
2021/07/24 06:33:54;;;;;;;1999.90;999.90;;;21.10;99.90;;;;;;5052629;28;20412;-73
2021/07/24 06:36:19;;;;;;;1999.90;999.90;;;21.20;99.90;;;;;;5052998;28;20189;-72
2021/07/24 06:38:45;;;;;;;1999.90;999.90;;;21.30;99.90;;;;;;5053199;28;20652;-73
2021/07/24 06:41:10;;;;;;;1999.90;999.90;;;21.50;99.90;;;;;;5053168;28;20189;-73
2021/07/24 06:43:36;;;;;;;1999.90;999.90;;;21.50;99.90;;;;;;5053468;28;20191;-73
2021/07/24 06:46:10;;;;;;;1999.90;999.90;;;21.50;99.90;;;;;;5053156;28;20652;-72
2021/07/24 06:48:35;;;;;;;1999.90;999.90;;;21.60;99.90;;;;;;5053421;28;20184;-73
2021/07/24 06:51:01;;;;;;;1999.90;999.90;;;21.60;99.90;;;;;;5053832;28;20448;-73
2021/07/24 06:53:26;;;;;;;1999.90;999.90;;;21.70;99.90;;;;;;5055368;28;20187;-73
2021/07/24 06:55:56;;;;;;;1999.90;999.90;;;21.80;99.90;;;;;;5057330;28;20624;-73
2021/07/24 06:58:21;;;;;;;1999.90;999.90;;;21.70;99.90;;;;;;5057624;28;20209;-73
2021/07/24 07:00:47;;;;;;;1999.90;999.90;;;21.80;99.90;;;;;;5057459;28;20419;-73
2021/07/24 07:03:13;;;;;;;1999.90;999.90;;;21.90;99.90;;;;;;5057611;28;20198;-73
2021/07/24 07:05:38;;;;;;;1999.90;999.90;;;21.90;99.90;;;;;;5057406;28;20202;-73
2021/07/24 07:08:04;;;;;;;1999.90;999.90;;;22.10;99.90;;;;;;5057889;28;20628;-73
2021/07/24 07:10:30;;;;;;;1999.90;999.90;;;22.30;99.90;;;;;;5058108;28;20806;-73
2021/07/24 07:12:55;;;;;;;1999.90;999.90;;;22.40;99.90;;;;;;5058431;28;20192;-73
2021/07/24 07:15:24;;;;;;;1999.90;999.90;;;22.50;99.90;;;;;;5058085;28;20177;-73
2021/07/24 07:17:51;;;;;;;1999.90;999.90;;;22.60;99.90;;;;;;5057860;28;20168;-73
2021/07/24 07:20:17;;;;;;;1999.90;999.90;;;22.60;99.90;;;;;;5057911;28;20406;-72
2021/07/24 07:22:43;;;;;;;1999.90;999.90;;;22.70;99.90;;;;;;5056045;28;20450;-72
2021/07/24 07:25:09;;;;;;;1999.90;999.90;;;22.70;99.90;;;;;;5056305;28;20232;-73
2021/07/24 07:27:38;;;;;;;1999.90;999.90;;;22.60;99.90;;;;;;5055843;28;20236;-73
2021/07/24 07:30:04;;;;;;;1999.90;999.90;;;22.70;99.90;;;;;;5055850;28;20422;-73
2021/07/24 07:32:30;;;;;;;1999.90;999.90;;;22.80;99.90;;;;;;5055773;28;20491;-73
2021/07/24 07:34:55;;;;;;;1999.90;999.90;;;22.80;99.90;;;;;;5055901;28;20480;-73
2021/07/24 07:37:21;;;;;;;1999.90;999.90;;;22.80;99.90;;;;;;5056669;28;20225;-73
2021/07/24 07:39:47;;;;;;;1999.90;999.90;;;22.90;99.90;;;;;;5055925;28;20202;-73
2021/07/24 07:42:13;;;;;;;1999.90;999.90;;;22.90;99.90;;;;;;5056501;28;20410;-73
2021/07/24 07:44:38;;;;;;;1999.90;999.90;;;22.90;99.90;;;;;;5056568;28;20680;-73
2021/07/24 07:47:04;;;;;;;1999.90;999.90;;;23.00;99.90;;;;;;5056981;28;20636;-73
2021/07/24 07:49:30;;;;;;;1999.90;999.90;;;23.00;99.90;;;;;;5056511;28;20172;-73
2021/07/24 07:51:55;;;;;;;1999.90;999.90;;;23.20;99.90;;;;;;5056382;28;20199;-72
2021/07/24 07:54:21;;;;;;;1999.90;999.90;;;23.30;99.90;;;;;;5056677;28;20587;-73
2021/07/24 07:56:48;;;;;;;1999.90;999.90;;;23.40;99.90;;;;;;5057363;28;20163;-73
2021/07/24 07:59:13;;;;;;;1999.90;999.90;;;23.50;99.90;;;;;;5057705;28;20180;-72
2021/07/24 08:01:39;;;;;;;1999.90;999.90;;;23.60;99.90;;;;;;5057744;28;20391;-73
2021/07/24 08:04:04;;;;;;;1999.90;999.90;;;23.70;99.90;;;;;;5057070;28;20192;-73
2021/07/24 08:06:30;;;;;;;1999.90;999.90;;;23.70;99.90;;;;;;5057120;28;20225;-73
2021/07/24 08:08:55;;;;;;;1999.90;999.90;;;23.80;99.90;;;;;;5056459;28;20179;-72
2021/07/24 08:11:21;;;;;;;1999.90;999.90;;;23.70;99.90;;;;;;5056835;28;20611;-73
2021/07/24 08:13:47;;;;;;;1999.90;999.90;;;23.70;99.90;;;;;;5056509;28;20202;-73
2021/07/24 08:16:16;;;;;;;1999.90;999.90;;;23.70;99.90;;;;;;5056610;28;20178;-72
2021/07/24 08:18:42;;;;;;;1999.90;999.90;;;23.60;99.90;;;;;;5056367;28;20571;-73
2021/07/24 08:21:08;;;;;;;1999.90;999.90;;;23.50;99.90;;;;;;5055794;28;21087;-73
2021/07/24 08:23:34;;;;;;;1999.90;999.90;;;23.50;99.90;;;;;;5055848;28;20397;-73
2021/07/24 08:25:59;;;;;;;1999.90;999.90;;;23.40;99.90;;;;;;5055337;28;20198;-73
2021/07/24 08:28:28;;;;;;;1999.90;999.90;;;23.30;99.90;;;;;;5055074;28;20176;-73
2021/07/24 08:30:54;;;;;;;1999.90;999.90;;;23.30;99.90;;;;;;5055995;28;20678;-73
2021/07/24 08:33:20;;;;;;;1999.90;999.90;;;23.20;99.90;;;;;;5055887;28;20423;-73
2021/07/24 08:35:45;;;;;;;1999.90;999.90;;;23.10;99.90;;;;;;5056266;28;20385;-73
2021/07/24 08:38:11;;;;;;;1999.90;999.90;;;23.00;99.90;;;;;;5056166;28;20247;-73
2021/07/24 08:40:38;;;;;;;1999.90;999.90;;;23.00;99.90;;;;;;5055172;28;20661;-73
2021/07/24 08:43:04;;;;;;;1999.90;999.90;;;22.90;99.90;;;;;;5055296;28;20201;-73
2021/07/24 08:45:30;;;;;;;1999.90;999.90;;;22.90;99.90;;;;;;5055250;28;20964;-73
2021/07/24 08:47:57;;;;;;;1999.90;999.90;;;22.80;99.90;;;;;;5055003;28;20504;-73
2021/07/24 08:50:23;;;;;;;1999.90;999.90;;;22.70;99.90;;;;;;5054282;28;20191;-73
2021/07/24 08:52:54;;;;;;;1999.90;999.90;;;22.60;99.90;;;;;;5054309;28;20459;-73
2021/07/24 08:55:23;;;;;;;1999.90;999.90;;;22.60;99.90;;;;;;5054165;28;20309;-73
2021/07/24 08:57:54;;;;;;;1999.90;999.90;;;22.60;99.90;;;;;;5055150;28;20402;-73
2021/07/24 09:00:22;;;;;;;1999.90;999.90;;;22.50;99.90;;;;;;5055281;28;20405;-73
2021/07/24 09:02:51;;;;;;;1999.90;999.90;;;22.50;99.90;;;;;;5054397;28;20422;-73
2021/07/24 09:05:17;;;;;;;1999.90;999.90;;;22.60;99.90;;;;;;5053924;28;20774;-73
2021/07/24 09:07:47;;;;;;;1999.90;999.90;;;22.60;99.90;;;;;;5054617;28;20447;-73
2021/07/24 09:10:15;;;;;;;1999.90;999.90;;;22.60;99.90;;;;;;5054682;28;20501;-73
2021/07/24 09:12:43;;;;;;;1999.90;999.90;;;22.60;99.90;;;;;;5054948;28;20403;-73
2021/07/24 09:15:10;;;;;;;1999.90;999.90;;;22.50;99.90;;;;;;5054352;28;20939;-73
2021/07/24 09:17:36;;;;;;;1999.90;999.90;;;22.50;99.90;;;;;;5054228;28;20434;-73
2021/07/24 09:20:02;;;;;;;1999.90;999.90;;;22.50;99.90;;;;;;5052707;28;20919;-74
2021/07/24 09:22:28;;;;;;;1999.90;999.90;;;22.50;99.90;;;;;;5052579;28;20467;-74
2021/07/24 09:25:13;;;;;;;1999.90;999.90;;;22.50;99.90;;;;;;5052341;28;20392;-74
2021/07/24 09:27:43;;;;;;;1999.90;999.90;;;22.50;99.90;;;;;;5052602;28;20169;-74
2021/07/24 09:30:34;;;;;;;1999.90;999.90;;;22.50;99.90;;;;;;5052506;28;20467;-74
2021/07/24 09:33:06;;;;;;;1999.90;999.90;;;22.40;99.90;;;;;;5052222;28;20978;-74
2021/07/24 09:35:44;;;;;;;1999.90;999.90;;;22.40;99.90;;;;;;5052130;28;20457;-74
2021/07/24 09:38:13;;;;;;;1999.90;999.90;;;22.50;99.90;;;;;;5052312;28;20435;-74
2021/07/24 09:40:40;;;;;;;1999.90;999.90;;;22.50;99.90;;;;;;5052356;28;20410;-73
2021/07/24 09:43:36;;;;;;;1999.90;999.90;;;22.50;99.90;;;;;;5052253;28;20487;-74
2021/07/24 09:46:08;;;;;;;1999.90;999.90;;;22.60;99.90;;;;;;5054292;28;20773;-73
2021/07/24 09:48:33;;;;;;;1999.90;999.90;;;22.60;99.90;;;;;;5055251;28;20722;-73
2021/07/24 09:50:59;;;;;;;1999.90;999.90;;;22.70;99.90;;;;;;5054716;28;20485;-73
2021/07/24 09:53:38;;;;;;;1999.90;999.90;;;22.80;99.90;;;;;;5054735;28;20699;-73
2021/07/24 09:56:04;;;;;;;1999.90;999.90;;;22.90;99.90;;;;;;5053855;28;20182;-73
2021/07/24 09:58:30;;;;;;;1999.90;999.90;;;22.80;99.90;;;;;;5053296;28;20486;-73
2021/07/24 10:01:04;;;;;;;1999.90;999.90;;;22.80;99.90;;;;;;5053418;28;20408;-73
2021/07/24 10:03:31;;;;;;;1999.90;999.90;;;22.80;99.90;;;;;;5053558;28;20193;-73
2021/07/24 10:05:59;;;;;;;1999.90;999.90;;;22.80;99.90;;;;;;5052850;28;20409;-72
2021/07/24 10:08:26;;;;;;;1999.90;999.90;;;22.80;99.90;;;;;;5052844;28;20410;-73
2021/07/24 10:10:52;;;;;;;1999.90;999.90;;;22.90;99.90;;;;;;5053002;28;20435;-73
2021/07/24 10:13:17;;;;;;;1999.90;999.90;;;22.90;99.90;;;;;;5053269;28;20400;-73
2021/07/24 10:15:45;;;;;;;1999.90;999.90;;;22.90;99.90;;;;;;5052698;28;20164;-73
2021/07/24 10:18:14;;;;;;;1999.90;999.90;;;23.00;99.90;;;;;;5053613;28;20550;-73
2021/07/24 10:20:44;;;;;;;1999.90;999.90;;;23.00;99.90;;;;;;5053901;28;20391;-73
2021/07/24 10:23:10;;;;;;;1999.90;999.90;;;23.10;99.90;;;;;;5054394;28;20927;-73
2021/07/24 10:25:46;;;;;;;1999.90;999.90;;;23.10;99.90;;;;;;5054654;28;20748;-73
2021/07/24 10:28:14;;;;;;;1999.90;999.90;;;23.00;99.90;;;;;;5059172;28;20376;-73
2021/07/24 10:30:41;;;;;;;1999.90;999.90;;;23.00;99.90;;;;;;5058529;28;20424;-73
2021/07/24 10:33:08;;;;;;;1999.90;999.90;;;23.00;99.90;;;;;;5058917;28;20467;-73
2021/07/24 10:35:41;;;;;;;1999.90;999.90;;;22.90;99.90;;;;;;5058472;28;20480;-73
2021/07/24 10:38:31;;;;;;;1999.90;999.90;;;22.90;99.90;;;;;;5059151;28;20404;-73
2021/07/24 10:41:22;;;;;;;1999.90;999.90;;;23.00;99.90;;;;;;5051129;28;20434;-73
2021/07/24 10:43:57;;;;;;;1999.90;999.90;;;23.00;99.90;;;;;;5058892;28;20430;-73
2021/07/24 10:46:41;;;;;;;1999.90;999.90;;;23.00;99.90;;;;;;5059358;28;20443;-73
2021/07/24 10:49:33;;;;;;;1999.90;999.90;;;22.90;99.90;;;;;;5059303;28;20391;-73
2021/07/24 10:52:08;;;;;;;1999.90;999.90;;;22.90;99.90;;;;;;5029217;28;20500;-72
2021/07/24 10:54:52;;;;;;;1999.90;999.90;;;22.80;99.90;;;;;;5057860;28;20385;-73
2021/07/24 10:57:43;;;;;;;1999.90;999.90;;;22.70;99.90;;;;;;5057655;28;20414;-73
2021/07/24 11:00:32;;;;;;;1999.90;999.90;;;22.50;99.90;;;;;;5057953;28;20418;-73
2021/07/24 11:02:58;;;;;;;1999.90;999.90;;;22.40;99.90;;;;;;5048994;28;20511;-72
2021/07/24 11:05:26;;;;;;;1999.90;999.90;;;22.30;99.90;;;;;;5057334;28;20401;-72
2021/07/24 11:07:52;;;;;;;1999.90;999.90;;;22.40;99.90;;;;;;5058652;28;20404;-72
2021/07/24 11:10:17;;;;;;;1999.90;999.90;;;22.40;99.90;;;;;;5058955;28;20449;-72
2021/07/24 11:12:43;;;;;;;1999.90;999.90;;;22.50;99.90;;;;;;5056958;28;20543;-73
2021/07/24 11:15:10;;;;;;;1999.90;999.90;;;22.50;99.90;;;;;;5056872;28;20171;-73
2021/07/24 11:17:37;;;;;;;1999.90;999.90;;;22.50;99.90;;;;;;5057041;28;20172;-73
2021/07/24 11:20:08;;;;;;;1999.90;999.90;;;22.50;99.90;;;;;;5056590;28;20375;-73
2021/07/24 11:22:38;;;;;;;1999.90;999.90;;;22.50;99.90;;;;;;5057137;28;20774;-73
2021/07/24 11:25:04;;;;;;;1999.90;999.90;;;22.60;99.90;;;;;;5056469;28;20436;-73
2021/07/24 11:27:34;;;;;;;1999.90;999.90;;;22.50;99.90;;;;;;5056081;28;20759;-73
2021/07/24 11:30:02;;;;;;;1999.90;999.90;;;22.40;99.90;;;;;;5055695;28;20165;-73
2021/07/24 11:32:39;;;;;;;1999.90;999.90;;;22.40;99.90;;;;;;5055701;28;20451;-73
2021/07/24 11:35:11;;;;;;;1999.90;999.90;;;22.30;99.90;;;;;;5055241;28;20485;-73
2021/07/24 11:37:45;;;;;;;1999.90;999.90;;;22.30;99.90;;;;;;5055552;28;20496;-73
2021/07/24 11:40:16;;;;;;;1999.90;999.90;;;22.20;99.90;;;;;;5055462;28;20390;-73
2021/07/24 11:42:43;;;;;;;1999.90;999.90;;;22.10;99.90;;;;;;5055731;28;20978;-73
2021/07/24 11:45:18;;;;;;;1999.90;999.90;;;22.20;99.90;;;;;;5055040;28;20395;-73
2021/07/24 11:47:43;;;;;;;1999.90;999.90;;;22.30;99.90;;;;;;5054337;28;20507;-73
2021/07/24 11:50:15;;;;;;;1999.90;999.90;;;22.30;99.90;;;;;;5054543;28;20552;-73
2021/07/24 11:52:42;;;;;;;1999.90;999.90;;;22.20;99.90;;;;;;5055053;28;20202;-73
2021/07/24 11:55:09;;;;;;;1999.90;999.90;;;22.00;99.90;;;;;;5054861;28;20914;-73
2021/07/24 11:57:35;;;;;;;1999.90;999.90;;;22.00;99.90;;;;;;5054679;28;20412;-73
2021/07/24 12:00:01;;;;;;;1999.90;999.90;;;21.90;99.90;;;;;;5054900;28;20409;-72
2021/07/24 12:02:27;;;;;;;1999.90;999.90;;;21.80;99.90;;;;;;5054537;28;20425;-72